createdAt,value
2023-04-11T00:00:39.286Z,9.61
2023-04-11T00:01:39.387Z,9.59
2023-04-11T00:02:39.434Z,9.54
2023-04-11T00:03:39.560Z,9.69
2023-04-11T00:04:39.608Z,9.64
2023-04-11T00:05:39.273Z,9.66
2023-04-11T00:06:39.272Z,9.69
2023-04-11T00:07:39.270Z,9.66
2023-04-11T00:08:39.264Z,9.68
2023-04-11T00:09:39.294Z,9.68
2023-04-11T00:10:39.254Z,9.69
2023-04-11T00:11:39.267Z,9.64
2023-04-11T00:12:39.247Z,9.66
2023-04-11T00:13:39.246Z,9.59
2023-04-11T00:14:39.239Z,9.59
2023-04-11T00:15:39.252Z,9.62
2023-04-11T00:16:39.293Z,9.69
2023-04-11T00:17:39.243Z,9.73
2023-04-11T00:18:39.235Z,9.65
2023-04-11T00:19:39.256Z,9.62
2023-04-11T00:20:39.218Z,9.64
2023-04-11T00:21:39.226Z,9.65
2023-04-11T00:22:39.227Z,9.66
2023-04-11T00:23:39.217Z,9.69
2023-04-11T00:24:39.557Z,9.69
2023-04-11T00:25:39.233Z,9.74
2023-04-11T00:26:39.213Z,9.74
2023-04-11T00:27:39.196Z,9.74
2023-04-11T00:28:39.198Z,9.73
2023-04-11T00:29:39.192Z,9.74
2023-04-11T00:30:39.180Z,9.69
2023-04-11T00:31:39.194Z,9.69
2023-04-11T00:32:39.225Z,9.77
2023-04-11T00:33:40.876Z,9.72
2023-04-11T00:34:39.166Z,9.68
2023-04-11T00:35:39.193Z,9.68
2023-04-11T00:36:39.244Z,9.69
2023-04-11T00:37:39.275Z,9.65
2023-04-11T00:38:39.180Z,9.66
2023-04-11T00:39:39.150Z,9.69
2023-04-11T00:40:39.146Z,9.77
2023-04-11T00:41:39.169Z,9.82
2023-04-11T00:42:39.137Z,9.79
2023-04-11T00:43:39.145Z,9.72
2023-04-11T00:44:39.136Z,9.73
2023-04-11T00:45:39.167Z,9.82
2023-04-11T00:46:39.128Z,9.74
2023-04-11T00:47:39.140Z,9.84
2023-04-11T00:48:39.116Z,9.80
2023-04-11T00:49:39.115Z,9.84
2023-04-11T00:50:39.109Z,9.83
2023-04-11T00:51:39.108Z,9.84
2023-04-11T00:52:39.101Z,9.86
2023-04-11T00:53:39.105Z,9.83
2023-04-11T00:54:39.095Z,9.82
2023-04-11T00:55:39.095Z,9.84
2023-04-11T00:56:39.089Z,9.84
2023-04-11T00:57:39.113Z,9.89
2023-04-11T00:58:39.080Z,9.84
2023-04-11T00:59:39.087Z,9.77
2023-04-11T01:00:39.085Z,9.86
2023-04-11T01:01:39.128Z,9.83
2023-04-11T01:02:39.299Z,9.84
2023-04-11T01:03:39.124Z,9.83
2023-04-11T01:04:39.064Z,9.86
2023-04-11T01:05:39.062Z,9.89
2023-04-11T01:06:39.070Z,9.82
2023-04-11T01:07:39.061Z,9.89
2023-04-11T01:08:39.053Z,9.82
2023-04-11T01:09:39.051Z,9.82
2023-04-11T01:10:39.048Z,9.92
2023-04-11T01:11:39.041Z,9.82
2023-04-11T01:12:39.042Z,9.87
2023-04-11T01:13:39.059Z,9.89
2023-04-11T01:14:39.033Z,9.91
2023-04-11T01:15:39.029Z,9.84
2023-04-11T01:16:39.083Z,9.91
2023-04-11T01:17:39.051Z,9.86
2023-04-11T01:18:39.016Z,9.89
2023-04-11T01:19:39.041Z,9.84
2023-04-11T01:20:39.013Z,9.87
2023-04-11T01:21:39.013Z,9.80
2023-04-11T01:22:39.003Z,9.84
2023-04-11T01:23:39.004Z,9.80
2023-04-11T01:24:39.002Z,9.80
2023-04-11T01:25:39.345Z,9.86
2023-04-11T01:26:38.994Z,9.73
2023-04-11T01:27:38.985Z,9.77
2023-04-11T01:28:38.983Z,9.73
2023-04-11T01:29:39.028Z,9.77
2023-04-11T01:30:39.063Z,9.86
2023-04-11T01:31:38.985Z,9.80
2023-04-11T01:32:39.052Z,9.69
2023-04-11T01:33:38.965Z,9.74
2023-04-11T01:34:38.959Z,9.77
2023-04-11T01:35:38.988Z,9.76
2023-04-11T01:36:38.956Z,9.68
2023-04-11T01:37:38.950Z,9.74
2023-04-11T01:38:38.954Z,9.69
2023-04-11T01:39:38.940Z,9.73
2023-04-11T01:40:38.940Z,9.68
2023-04-11T01:41:38.937Z,9.65
2023-04-11T01:42:38.983Z,9.66
2023-04-11T01:43:38.926Z,9.69
2023-04-11T01:44:38.921Z,9.69
2023-04-11T01:45:38.935Z,9.66
2023-04-11T01:46:38.915Z,9.74
2023-04-11T01:47:39.109Z,9.66
2023-04-11T01:48:39.062Z,9.72
2023-04-11T01:49:38.911Z,9.68
2023-04-11T01:50:38.902Z,9.68
2023-04-11T01:51:38.894Z,9.66
2023-04-11T01:52:38.901Z,9.65
2023-04-11T01:53:38.888Z,9.68
2023-04-11T01:54:38.899Z,9.72
2023-04-11T01:55:38.883Z,9.72
2023-04-11T01:56:38.893Z,9.66
2023-04-11T01:57:38.880Z,9.68
2023-04-11T01:58:38.869Z,9.66
2023-04-11T01:59:38.870Z,9.66
2023-04-11T02:00:38.863Z,9.72
2023-04-11T02:01:38.927Z,9.66
2023-04-11T02:02:38.945Z,9.65
2023-04-11T02:03:39.014Z,9.74
2023-04-11T02:04:38.858Z,9.66
2023-04-11T02:05:38.853Z,9.68
2023-04-11T02:06:38.835Z,9.72
2023-04-11T02:07:38.832Z,9.68
2023-04-11T02:08:38.833Z,9.65
2023-04-11T02:09:38.826Z,9.68
2023-04-11T02:10:38.829Z,9.65
2023-04-11T02:11:38.831Z,9.69
2023-04-11T02:12:38.833Z,9.69
2023-04-11T02:13:38.874Z,9.56
2023-04-11T02:14:38.806Z,9.69
2023-04-11T02:15:38.840Z,9.59
2023-04-11T02:16:38.801Z,9.59
2023-04-11T02:17:38.867Z,9.64
2023-04-11T02:18:38.792Z,9.69
2023-04-11T02:19:38.790Z,9.73
2023-04-11T02:20:38.784Z,9.64
2023-04-11T02:21:38.784Z,9.51
2023-04-11T02:22:38.775Z,9.59
2023-04-11T02:23:38.790Z,9.66
2023-04-11T02:24:38.780Z,9.64
2023-04-11T02:25:38.767Z,9.50
2023-04-11T02:26:38.760Z,9.48
2023-04-11T02:27:38.761Z,9.51
2023-04-11T02:28:38.761Z,9.58
2023-04-11T02:29:38.760Z,9.56
2023-04-11T02:30:39.127Z,9.58
2023-04-11T02:31:38.827Z,9.59
2023-04-11T02:32:38.778Z,9.55
2023-04-11T02:33:38.762Z,9.55
2023-04-11T02:34:38.731Z,9.54
2023-04-11T02:35:38.744Z,9.54
2023-04-11T02:36:38.722Z,9.55
2023-04-11T02:37:38.726Z,9.58
2023-04-11T02:38:38.716Z,9.51
2023-04-11T02:39:38.709Z,9.51
2023-04-11T02:40:38.711Z,9.46
2023-04-11T02:41:38.703Z,9.54
2023-04-11T02:42:38.699Z,9.44
2023-04-11T02:43:38.696Z,9.48
2023-04-11T02:44:38.692Z,9.40
2023-04-11T02:45:38.690Z,9.47
2023-04-11T02:46:38.706Z,9.47
2023-04-11T02:47:38.715Z,9.48
2023-04-11T02:48:38.677Z,9.47
2023-04-11T02:49:38.693Z,9.39
2023-04-11T02:50:38.673Z,9.47
2023-04-11T02:51:38.665Z,9.37
2023-04-11T02:52:38.660Z,9.43
2023-04-11T02:53:38.657Z,9.50
2023-04-11T02:54:38.652Z,9.46
2023-04-11T02:55:38.649Z,9.46
2023-04-11T02:56:38.684Z,9.43
2023-04-11T02:57:38.637Z,9.44
2023-04-11T02:58:38.635Z,9.40
2023-04-11T02:59:38.639Z,9.41
2023-04-11T03:00:38.630Z,9.40
2023-04-11T03:01:38.891Z,9.39
2023-04-11T03:02:38.724Z,9.39
2023-04-11T03:03:38.662Z,9.43
2023-04-11T03:04:38.668Z,9.43
2023-04-11T03:05:38.630Z,9.36
2023-04-11T03:06:38.605Z,9.44
2023-04-11T03:07:38.608Z,9.39
2023-04-11T03:08:38.596Z,9.32
2023-04-11T03:09:38.600Z,9.31
2023-04-11T03:10:38.618Z,9.32
2023-04-11T03:11:38.587Z,9.29
2023-04-11T03:12:38.582Z,9.31
2023-04-11T03:13:38.574Z,9.34
2023-04-11T03:14:38.578Z,9.34
2023-04-11T03:15:38.655Z,9.36
2023-04-11T03:16:38.586Z,9.21
2023-04-11T03:17:38.583Z,9.29
2023-04-11T03:18:38.561Z,9.34
2023-04-11T03:19:38.552Z,9.29
2023-04-11T03:20:38.556Z,9.36
2023-04-11T03:21:38.562Z,9.32
2023-04-11T03:22:38.545Z,9.29
2023-04-11T03:23:38.539Z,9.32
2023-04-11T03:24:38.544Z,9.29
2023-04-11T03:25:38.532Z,9.28
2023-04-11T03:26:38.537Z,9.26
2023-04-11T03:27:38.525Z,9.26
2023-04-11T03:28:38.522Z,9.36
2023-04-11T03:29:38.522Z,9.31
2023-04-11T03:30:38.717Z,9.31
2023-04-11T03:31:38.569Z,9.32
2023-04-11T03:32:38.549Z,9.29
2023-04-11T03:33:38.500Z,9.31
2023-04-11T03:34:38.505Z,9.29
2023-04-11T03:35:38.499Z,9.32
2023-04-11T03:36:38.511Z,9.21
2023-04-11T03:37:38.511Z,9.25
2023-04-11T03:38:38.488Z,9.25
2023-04-11T03:39:38.493Z,9.18
2023-04-11T03:40:38.482Z,9.18
2023-04-11T03:41:38.469Z,9.16
2023-04-11T03:42:38.469Z,9.14
2023-04-11T03:43:38.463Z,9.19
2023-04-11T03:44:38.461Z,9.13
2023-04-11T03:45:38.456Z,9.18
2023-04-11T03:46:38.496Z,9.11
2023-04-11T03:47:38.460Z,9.14
2023-04-11T03:48:38.458Z,9.04
2023-04-11T03:49:38.454Z,9.14
2023-04-11T03:50:38.463Z,9.08
2023-04-11T03:51:38.432Z,9.10
2023-04-11T03:52:38.431Z,9.04
2023-04-11T03:53:38.470Z,9.14
2023-04-11T03:54:38.423Z,9.11
2023-04-11T03:55:38.418Z,9.13
2023-04-11T03:56:38.418Z,9.10
2023-04-11T03:57:38.404Z,9.10
2023-04-11T03:58:38.402Z,9.02
2023-04-11T03:59:38.394Z,9.06
2023-04-11T04:00:38.397Z,9.06
2023-04-11T04:01:38.459Z,9.06
2023-04-11T04:02:38.527Z,9.06
2023-04-11T04:03:38.693Z,9.11
2023-04-11T04:04:38.523Z,9.04
2023-04-11T04:05:38.385Z,9.06
2023-04-11T04:06:38.373Z,9.03
2023-04-11T04:07:38.366Z,9.11
2023-04-11T04:08:38.376Z,9.06
2023-04-11T04:09:38.392Z,9.11
2023-04-11T04:10:38.351Z,9.10
2023-04-11T04:11:38.353Z,9.11
2023-04-11T04:12:38.348Z,9.04
2023-04-11T04:13:38.358Z,9.03
2023-04-11T04:14:38.341Z,9.02
2023-04-11T04:15:38.341Z,9.10
2023-04-11T04:16:38.372Z,9.11
2023-04-11T04:17:38.345Z,9.02
2023-04-11T04:18:38.321Z,9.03
2023-04-11T04:19:38.315Z,8.95
2023-04-11T04:20:38.321Z,8.91
2023-04-11T04:21:38.303Z,8.88
2023-04-11T04:22:38.310Z,8.91
2023-04-11T04:23:38.297Z,8.91
2023-04-11T04:24:38.295Z,8.92
2023-04-11T04:25:38.306Z,8.85
2023-04-11T04:26:38.298Z,8.81
2023-04-11T04:27:38.278Z,8.88
2023-04-11T04:28:38.279Z,8.92
2023-04-11T04:29:38.283Z,8.99
2023-04-11T04:30:38.625Z,8.91
2023-04-11T04:31:38.316Z,8.88
2023-04-11T04:32:38.347Z,8.82
2023-04-11T04:33:38.265Z,8.82
2023-04-11T04:34:38.278Z,8.87
2023-04-11T04:35:38.284Z,8.87
2023-04-11T04:36:38.243Z,8.88
2023-04-11T04:37:38.239Z,8.88
2023-04-11T04:38:38.249Z,8.87
2023-04-11T04:39:38.236Z,8.92
2023-04-11T04:40:38.238Z,8.87
2023-04-11T04:41:38.247Z,8.78
2023-04-11T04:42:38.223Z,8.85
2023-04-11T04:43:38.221Z,8.84
2023-04-11T04:44:38.211Z,8.95
2023-04-11T04:45:38.245Z,8.71
2023-04-11T04:46:38.202Z,8.87
2023-04-11T04:47:38.220Z,8.87
2023-04-11T04:48:38.212Z,8.82
2023-04-11T04:49:38.187Z,8.85
2023-04-11T04:50:38.190Z,8.79
2023-04-11T04:51:38.188Z,8.89
2023-04-11T04:52:38.188Z,8.79
2023-04-11T04:53:38.170Z,8.81
2023-04-11T04:54:38.167Z,8.82
2023-04-11T04:55:38.161Z,8.74
2023-04-11T04:56:38.163Z,8.78
2023-04-11T04:57:38.180Z,8.84
2023-04-11T04:58:38.150Z,8.81
2023-04-11T04:59:38.175Z,8.88
2023-04-11T05:00:38.148Z,8.74
2023-04-11T05:01:38.217Z,8.84
2023-04-11T05:02:38.308Z,8.84
2023-04-11T05:03:38.227Z,8.84
2023-04-11T05:04:38.133Z,8.81
2023-04-11T05:05:38.120Z,8.71
2023-04-11T05:06:38.128Z,8.81
2023-04-11T05:07:38.116Z,8.71
2023-04-11T05:08:38.109Z,8.84
2023-04-11T05:09:38.107Z,8.79
2023-04-11T05:10:38.105Z,8.87
2023-04-11T05:11:38.092Z,8.82
2023-04-11T05:12:38.093Z,8.78
2023-04-11T05:13:38.103Z,8.81
2023-04-11T05:14:38.099Z,8.89
2023-04-11T05:15:38.075Z,8.78
2023-04-11T05:16:38.136Z,8.88
2023-04-11T05:17:38.083Z,8.88
2023-04-11T05:18:38.071Z,8.84
2023-04-11T05:19:38.061Z,8.85
2023-04-11T05:20:38.056Z,8.84
2023-04-11T05:21:38.054Z,8.82
2023-04-11T05:22:38.099Z,8.88
2023-04-11T05:23:38.042Z,8.82
2023-04-11T05:24:38.046Z,8.78
2023-04-11T05:25:38.036Z,8.79
2023-04-11T05:26:38.034Z,8.73
2023-04-11T05:27:38.086Z,8.69
2023-04-11T05:28:38.030Z,8.63
2023-04-11T05:29:38.057Z,8.63
2023-04-11T05:30:38.085Z,8.60
2023-04-11T05:31:38.359Z,8.64
2023-04-11T05:32:38.034Z,8.61
2023-04-11T05:33:37.999Z,8.60
2023-04-11T05:34:37.996Z,8.60
2023-04-11T05:35:38.018Z,8.60
2023-04-11T05:36:37.990Z,8.60
2023-04-11T05:37:37.997Z,8.66
2023-04-11T05:38:37.989Z,8.61
2023-04-11T05:39:37.977Z,8.61
2023-04-11T05:40:37.979Z,8.64
2023-04-11T05:41:37.965Z,8.63
2023-04-11T05:42:37.980Z,8.63
2023-04-11T05:43:37.961Z,8.60
2023-04-11T05:44:37.961Z,8.63
2023-04-11T05:45:37.981Z,8.66
2023-04-11T05:46:38.057Z,8.53
2023-04-11T05:47:37.953Z,8.53
2023-04-11T05:48:37.943Z,8.53
2023-04-11T05:49:37.933Z,8.52
2023-04-11T05:50:37.929Z,8.56
2023-04-11T05:51:37.930Z,8.60
2023-04-11T05:52:37.925Z,8.53
2023-04-11T05:53:37.916Z,8.56
2023-04-11T05:54:37.918Z,8.49
2023-04-11T05:55:37.923Z,8.55
2023-04-11T05:56:37.904Z,8.51
2023-04-11T05:57:37.897Z,8.58
2023-04-11T05:58:37.902Z,8.66
2023-04-11T05:59:37.886Z,8.67
2023-04-11T06:00:37.882Z,8.58
2023-04-11T06:01:37.922Z,8.66
2023-04-11T06:02:38.040Z,8.64
2023-04-11T06:03:37.983Z,8.55
2023-04-11T06:04:38.066Z,8.56
2023-04-11T06:05:37.872Z,8.52
2023-04-11T06:06:37.856Z,8.58
2023-04-11T06:07:37.851Z,8.60
2023-04-11T06:08:37.851Z,8.55
2023-04-11T06:09:37.843Z,8.49
2023-04-11T06:10:37.845Z,8.41
2023-04-11T06:11:37.845Z,8.45
2023-04-11T06:12:37.841Z,8.38
2023-04-11T06:13:37.830Z,8.37
2023-04-11T06:14:40.215Z,8.34
2023-04-11T06:15:37.841Z,8.41
2023-04-11T06:16:37.815Z,8.31
2023-04-11T06:17:37.913Z,8.41
2023-04-11T06:18:37.826Z,8.33
2023-04-11T06:19:37.803Z,8.24
2023-04-11T06:20:37.792Z,8.33
2023-04-11T06:21:37.789Z,8.31
2023-04-11T06:22:37.786Z,8.34
2023-04-11T06:23:37.781Z,8.37
2023-04-11T06:24:37.777Z,8.38
2023-04-11T06:25:37.771Z,8.44
2023-04-11T06:26:37.777Z,8.42
2023-04-11T06:27:37.772Z,8.52
2023-04-11T06:28:37.766Z,8.41
2023-04-11T06:29:37.763Z,8.45
2023-04-11T06:30:37.755Z,8.49
2023-04-11T06:31:37.837Z,8.53
2023-04-11T06:32:37.758Z,8.55
2023-04-11T06:33:37.766Z,8.55
2023-04-11T06:34:37.731Z,8.56
2023-04-11T06:35:37.757Z,8.69
2023-04-11T06:36:37.730Z,8.63
2023-04-11T06:37:37.720Z,8.64
2023-04-11T06:38:37.723Z,8.66
2023-04-11T06:39:37.729Z,8.69
2023-04-11T06:40:37.733Z,8.64
2023-04-11T06:41:37.729Z,8.70
2023-04-11T06:42:37.698Z,8.70
2023-04-11T06:43:37.708Z,8.73
2023-04-11T06:44:37.696Z,8.73
2023-04-11T06:45:37.692Z,8.70
2023-04-11T06:46:37.705Z,8.66
2023-04-11T06:47:37.760Z,8.69
2023-04-11T06:48:37.674Z,8.70
2023-04-11T06:49:37.689Z,8.67
2023-04-11T06:50:37.665Z,8.63
2023-04-11T06:51:37.667Z,8.64
2023-04-11T06:52:37.672Z,8.70
2023-04-11T06:53:37.650Z,8.76
2023-04-11T06:54:37.653Z,8.70
2023-04-11T06:55:37.676Z,8.70
2023-04-11T06:56:37.637Z,8.78
2023-04-11T06:57:37.636Z,8.78
2023-04-11T06:58:37.629Z,8.78
2023-04-11T06:59:37.632Z,8.71
2023-04-11T07:00:37.620Z,8.76
2023-04-11T07:01:37.822Z,8.87
2023-04-11T07:02:37.843Z,8.82
2023-04-11T07:03:37.748Z,8.88
2023-04-11T07:04:37.637Z,8.94
2023-04-11T07:05:39.428Z,8.99
2023-04-11T07:06:37.593Z,8.92
2023-04-11T07:07:37.595Z,8.88
2023-04-11T07:08:37.584Z,8.95
2023-04-11T07:09:37.583Z,8.81
2023-04-11T07:10:37.573Z,8.92
2023-04-11T07:11:37.573Z,8.97
2023-04-11T07:12:37.575Z,8.99
2023-04-11T07:13:37.567Z,9.13
2023-04-11T07:14:37.561Z,9.06
2023-04-11T07:15:37.563Z,9.08
2023-04-11T07:16:37.690Z,9.08
2023-04-11T07:17:37.594Z,9.21
2023-04-11T07:18:37.537Z,9.19
2023-04-11T07:19:37.540Z,9.22
2023-04-11T07:20:37.530Z,9.21
2023-04-11T07:21:37.617Z,9.21
2023-04-11T07:22:37.525Z,9.19
2023-04-11T07:23:37.521Z,9.21
2023-04-11T07:24:37.521Z,9.29
2023-04-11T07:25:37.519Z,9.29
2023-04-11T07:26:37.503Z,9.36
2023-04-11T07:27:37.499Z,9.32
2023-04-11T07:28:37.524Z,9.32
2023-04-11T07:29:37.492Z,9.39
2023-04-11T07:30:37.487Z,9.28
2023-04-11T07:31:37.523Z,9.32
2023-04-11T07:32:37.513Z,9.28
2023-04-11T07:33:37.474Z,9.21
2023-04-11T07:34:37.470Z,9.25
2023-04-11T07:35:37.481Z,9.25
2023-04-11T07:36:37.722Z,9.21
2023-04-11T07:37:37.482Z,9.18
2023-04-11T07:38:37.511Z,9.28
2023-04-11T07:39:37.450Z,9.34
2023-04-11T07:40:37.442Z,9.31
2023-04-11T07:41:37.441Z,9.46
2023-04-11T07:42:37.431Z,9.58
2023-04-11T07:43:37.430Z,9.62
2023-04-11T07:44:37.442Z,9.55
2023-04-11T07:45:37.434Z,9.61
2023-04-11T07:46:37.413Z,9.59
2023-04-11T07:47:37.465Z,9.58
2023-04-11T07:48:37.405Z,9.68
2023-04-11T07:49:37.409Z,9.66
2023-04-11T07:50:37.394Z,9.83
2023-04-11T07:51:37.392Z,9.94
2023-04-11T07:52:37.393Z,9.98
2023-04-11T07:53:37.617Z,10.16
2023-04-11T07:54:37.379Z,10.23
2023-04-11T07:55:37.379Z,10.17
2023-04-11T07:56:37.371Z,10.05
2023-04-11T07:57:37.369Z,10.01
2023-04-11T07:58:37.376Z,9.97
2023-04-11T07:59:37.362Z,10.02
2023-04-11T08:00:37.357Z,10.05
2023-04-11T08:01:37.387Z,10.07
2023-04-11T08:02:37.506Z,10.10
2023-04-11T08:03:37.624Z,10.09
2023-04-11T08:04:37.572Z,10.13
2023-04-11T08:05:37.337Z,10.02
2023-04-11T08:06:37.339Z,9.95
2023-04-11T08:07:37.332Z,9.91
2023-04-11T08:08:37.322Z,10.10
2023-04-11T08:09:37.335Z,10.22
2023-04-11T08:10:37.313Z,10.41
2023-04-11T08:11:37.314Z,10.37
2023-04-11T08:12:37.310Z,10.49
2023-04-11T08:13:37.304Z,10.40
2023-04-11T08:14:37.310Z,10.42
2023-04-11T08:15:37.299Z,10.41
2023-04-11T08:16:37.328Z,10.41
2023-04-11T08:17:37.400Z,10.34
2023-04-11T08:18:37.297Z,10.22
2023-04-11T08:19:37.298Z,10.16
2023-04-11T08:20:37.285Z,10.23
2023-04-11T08:21:37.279Z,10.20
2023-04-11T08:22:37.279Z,10.41
2023-04-11T08:23:37.275Z,10.67
2023-04-11T08:24:37.269Z,10.81
2023-04-11T08:25:37.322Z,11.02
2023-04-11T08:26:37.269Z,11.18
2023-04-11T08:27:37.266Z,11.32
2023-04-11T08:28:37.267Z,11.15
2023-04-11T08:29:37.260Z,11.12
2023-04-11T08:30:37.282Z,10.93
2023-04-11T08:31:37.258Z,10.82
2023-04-11T08:32:37.272Z,10.74
2023-04-11T08:33:37.241Z,10.68
2023-04-11T08:34:37.245Z,10.67
2023-04-11T08:35:37.274Z,10.64
2023-04-11T08:36:37.587Z,10.68
2023-04-11T08:37:37.243Z,10.72
2023-04-11T08:38:37.230Z,10.63
2023-04-11T08:39:37.223Z,10.57
2023-04-11T08:40:37.220Z,10.53
2023-04-11T08:41:37.242Z,10.56
2023-04-11T08:42:37.218Z,10.53
2023-04-11T08:43:37.221Z,10.46
2023-04-11T08:44:37.206Z,10.42
2023-04-11T08:45:37.210Z,10.44
2023-04-11T08:46:37.233Z,10.37
2023-04-11T08:47:37.287Z,10.33
2023-04-11T08:48:37.199Z,10.31
2023-04-11T08:49:37.192Z,10.31
2023-04-11T08:50:37.213Z,10.44
2023-04-11T08:51:37.181Z,10.49
2023-04-11T08:52:37.179Z,10.49
2023-04-11T08:53:37.176Z,10.41
2023-04-11T08:54:37.180Z,10.40
2023-04-11T08:55:37.168Z,10.42
2023-04-11T08:56:37.199Z,10.48
2023-04-11T08:57:37.182Z,10.40
2023-04-11T08:58:37.162Z,10.44
2023-04-11T08:59:37.193Z,10.38
2023-04-11T09:00:37.151Z,10.41
2023-04-11T09:01:37.432Z,10.34
2023-04-11T09:02:37.187Z,10.44
2023-04-11T09:03:37.149Z,10.41
2023-04-11T09:04:37.213Z,10.38
2023-04-11T09:05:37.138Z,10.53
2023-04-11T09:06:37.135Z,10.51
2023-04-11T09:07:37.131Z,10.61
2023-04-11T09:08:37.126Z,10.53
2023-04-11T09:09:37.139Z,10.54
2023-04-11T09:10:37.116Z,10.46
2023-04-11T09:11:37.114Z,10.59
2023-04-11T09:12:37.107Z,10.53
2023-04-11T09:13:37.121Z,10.59
2023-04-11T09:14:37.115Z,10.56
2023-04-11T09:15:37.126Z,10.57
2023-04-11T09:16:37.088Z,10.51
2023-04-11T09:17:37.122Z,10.54
2023-04-11T09:18:37.084Z,10.59
2023-04-11T09:19:37.081Z,10.49
2023-04-11T09:20:37.076Z,10.53
2023-04-11T09:21:37.079Z,10.49
2023-04-11T09:22:37.075Z,10.40
2023-04-11T09:23:37.073Z,10.48
2023-04-11T09:24:37.089Z,10.49
2023-04-11T09:25:37.062Z,10.48
2023-04-11T09:26:37.055Z,10.38
2023-04-11T09:27:37.056Z,10.42
2023-04-11T09:28:37.056Z,10.40
2023-04-11T09:29:37.093Z,10.48
2023-04-11T09:30:37.057Z,10.42
2023-04-11T09:31:37.062Z,10.46
2023-04-11T09:32:37.047Z,10.59
2023-04-11T09:33:37.032Z,10.71
2023-04-11T09:34:37.025Z,10.74
2023-04-11T09:35:37.048Z,10.69
2023-04-11T09:36:37.019Z,10.74
2023-04-11T09:37:37.024Z,10.76
2023-04-11T09:38:37.020Z,10.81
2023-04-11T09:39:37.012Z,10.92
2023-04-11T09:40:37.006Z,11.00
2023-04-11T09:41:36.998Z,10.97
2023-04-11T09:42:37.006Z,11.04
2023-04-11T09:43:36.994Z,11.10
2023-04-11T09:44:36.986Z,11.15
2023-04-11T09:45:47.722Z,11.07
2023-04-11T09:46:36.994Z,11.11
2023-04-11T09:47:36.990Z,11.08
2023-04-11T09:48:46.602Z,11.15
2023-04-11T09:49:36.975Z,11.02
2023-04-11T09:50:37.010Z,11.10
2023-04-11T09:52:36.963Z,11.18
2023-04-11T09:53:36.956Z,11.29
2023-04-11T09:53:40.616Z,11.15
2023-04-11T09:54:36.954Z,11.32
2023-04-11T09:55:36.951Z,11.27
2023-04-11T09:56:36.942Z,11.30
2023-04-11T09:57:36.940Z,11.27
2023-04-11T09:58:36.934Z,11.27
2023-04-11T09:59:36.934Z,11.29
2023-04-11T10:00:36.927Z,11.27
2023-04-11T10:01:37.000Z,11.33
2023-04-11T10:02:37.126Z,11.29
2023-04-11T10:03:36.926Z,11.44
2023-04-11T10:04:36.969Z,11.30
2023-04-11T10:05:36.917Z,11.26
2023-04-11T10:06:36.902Z,11.26
2023-04-11T10:07:36.901Z,11.11
2023-04-11T10:08:36.898Z,11.05
2023-04-11T10:09:36.902Z,11.00
2023-04-11T10:10:36.915Z,10.96
2023-04-11T10:11:36.931Z,10.87
2023-04-11T10:12:36.883Z,10.84
2023-04-11T10:13:36.881Z,10.86
2023-04-11T10:14:37.125Z,10.72
2023-04-11T10:15:36.882Z,10.78
2023-04-11T10:16:36.914Z,10.71
2023-04-11T10:17:36.921Z,10.86
2023-04-11T10:18:36.860Z,10.84
2023-04-11T10:19:36.856Z,10.81
2023-04-11T10:20:36.911Z,10.92
2023-04-11T10:21:36.853Z,10.96
2023-04-11T10:22:36.852Z,11.11
2023-04-11T10:23:36.842Z,11.19
2023-04-11T10:24:36.846Z,11.30
2023-04-11T10:25:36.859Z,11.35
2023-04-11T10:26:36.826Z,11.44
2023-04-11T10:27:36.827Z,11.35
2023-04-11T10:28:36.827Z,11.44
2023-04-11T10:29:36.824Z,11.36
2023-04-11T10:30:36.811Z,11.33
2023-04-11T10:31:36.874Z,11.18
2023-04-11T10:32:36.831Z,11.10
2023-04-11T10:33:36.816Z,11.05
2023-04-11T10:34:36.814Z,10.97
2023-04-11T10:35:36.815Z,10.89
2023-04-11T10:36:36.794Z,11.07
2023-04-11T10:37:36.797Z,10.97
2023-04-11T10:38:36.808Z,10.99
2023-04-11T10:39:36.794Z,11.11
2023-04-11T10:40:36.775Z,11.04
2023-04-11T10:41:36.781Z,11.02
2023-04-11T10:42:36.772Z,11.08
2023-04-11T10:43:38.770Z,11.11
2023-04-11T10:44:36.763Z,11.10
2023-04-11T10:45:36.754Z,11.08
2023-04-11T10:46:36.784Z,11.08
2023-04-11T10:47:36.777Z,11.02
2023-04-11T10:48:36.743Z,10.97
2023-04-11T10:49:36.826Z,10.89
2023-04-11T10:50:36.736Z,10.96
2023-04-11T10:51:36.728Z,10.92
2023-04-11T10:52:36.731Z,10.84
2023-04-11T10:53:36.719Z,10.81
2023-04-11T10:54:36.733Z,10.71
2023-04-11T10:55:36.715Z,10.69
2023-04-11T10:56:36.710Z,10.67
2023-04-11T10:57:36.718Z,10.68
2023-04-11T10:58:36.706Z,10.54
2023-04-11T10:59:36.712Z,10.44
2023-04-11T11:00:36.728Z,10.46
2023-04-11T11:01:42.993Z,10.54
2023-04-11T11:02:36.851Z,10.44
2023-04-11T11:03:36.773Z,10.51
2023-04-11T11:04:36.837Z,10.59
2023-04-11T11:05:36.724Z,10.56
2023-04-11T11:06:46.233Z,10.64
2023-04-11T11:07:36.663Z,10.59
2023-04-11T11:08:36.661Z,10.72
2023-04-11T11:09:36.659Z,10.74
2023-04-11T11:10:36.664Z,10.71
2023-04-11T11:11:36.643Z,10.74
2023-04-11T11:12:36.639Z,10.74
2023-04-11T11:13:36.634Z,10.75
2023-04-11T11:14:36.655Z,10.84
2023-04-11T11:15:36.632Z,10.84
2023-04-11T11:16:36.628Z,10.84
2023-04-11T11:17:36.656Z,10.89
2023-04-11T11:18:36.615Z,10.94
2023-04-11T11:19:36.962Z,11.15
2023-04-11T11:20:36.613Z,11.11
2023-04-11T11:21:36.622Z,11.18
2023-04-11T11:22:36.601Z,11.27
2023-04-11T11:23:36.596Z,11.32
2023-04-11T11:24:36.598Z,11.41
2023-04-11T11:25:36.585Z,11.51
2023-04-11T11:26:36.588Z,11.43
2023-04-11T11:27:36.578Z,11.45
2023-04-11T11:28:36.574Z,11.54
2023-04-11T11:29:36.565Z,11.55
2023-04-11T11:30:36.580Z,11.51
2023-04-11T11:31:36.606Z,11.54
2023-04-11T11:32:36.624Z,11.60
2023-04-11T11:33:36.557Z,11.62
2023-04-11T11:34:36.552Z,11.59
2023-04-11T11:35:36.541Z,11.63
2023-04-11T11:36:36.595Z,11.54
2023-04-11T11:37:36.555Z,11.57
2023-04-11T11:38:36.540Z,11.57
2023-04-11T11:39:36.538Z,11.54
2023-04-11T11:40:36.532Z,11.60
2023-04-11T11:41:36.520Z,11.55
2023-04-11T11:42:36.515Z,11.60
2023-04-11T11:43:36.513Z,11.55
2023-04-11T11:44:36.510Z,11.55
2023-04-11T11:45:36.570Z,11.54
2023-04-11T11:46:36.641Z,11.48
2023-04-11T11:47:36.508Z,11.41
2023-04-11T11:48:36.503Z,11.33
2023-04-11T11:49:36.489Z,11.32
2023-04-11T11:50:36.486Z,11.33
2023-04-11T11:51:36.481Z,11.27
2023-04-11T11:52:36.532Z,11.26
2023-04-11T11:53:36.500Z,11.27
2023-04-11T11:54:36.484Z,11.18
2023-04-11T11:55:36.476Z,11.08
2023-04-11T11:56:36.471Z,11.08
2023-04-11T11:57:36.487Z,11.15
2023-04-11T11:58:36.459Z,10.99
2023-04-11T11:59:36.457Z,11.04
2023-04-11T12:00:36.454Z,11.05
2023-04-11T12:01:36.448Z,11.07
2023-04-11T12:02:36.633Z,10.99
2023-04-11T12:03:36.564Z,11.04
2023-04-11T12:04:36.590Z,11.12
2023-04-11T12:05:36.493Z,11.25
2023-04-11T12:06:36.427Z,11.41
2023-04-11T12:07:36.426Z,11.55
2023-04-11T12:08:36.422Z,11.69
2023-04-11T12:09:36.439Z,11.66
2023-04-11T12:10:36.420Z,11.73
2023-04-11T12:11:36.407Z,11.86
2023-04-11T12:12:36.405Z,11.95
2023-04-11T12:13:36.410Z,11.94
2023-04-11T12:14:36.397Z,11.90
2023-04-11T12:15:36.424Z,11.99
2023-04-11T12:16:36.487Z,11.94
2023-04-11T12:17:37.820Z,11.83
2023-04-11T12:18:36.382Z,11.88
2023-04-11T12:19:36.726Z,11.75
2023-04-11T12:20:36.381Z,11.77
2023-04-11T12:21:36.376Z,11.78
2023-04-11T12:22:36.375Z,11.78
2023-04-11T12:23:36.367Z,11.81
2023-04-11T12:24:36.362Z,11.73
2023-04-11T12:25:36.377Z,11.75
2023-04-11T12:26:38.289Z,11.97
2023-04-11T12:27:36.359Z,11.81
2023-04-11T12:28:36.346Z,11.87
2023-04-11T12:29:36.338Z,11.84
2023-04-11T12:30:36.341Z,11.95
2023-04-11T12:31:36.385Z,11.95
2023-04-11T12:32:36.373Z,11.87
2023-04-11T12:33:36.327Z,11.97
2023-04-11T12:34:36.322Z,12.06
2023-04-11T12:35:36.318Z,12.10
2023-04-11T12:36:36.337Z,12.24
2023-04-11T12:37:36.340Z,12.24
2023-04-11T12:38:36.306Z,12.24
2023-04-11T12:39:36.309Z,12.35
2023-04-11T12:40:36.300Z,12.28
2023-04-11T12:41:36.318Z,12.31
2023-04-11T12:42:39.105Z,12.20
2023-04-11T12:43:36.294Z,12.24
2023-04-11T12:44:36.288Z,12.12
2023-04-11T12:45:36.293Z,11.95
2023-04-11T12:46:36.336Z,11.80
2023-04-11T12:47:36.314Z,11.78
2023-04-11T12:48:36.277Z,11.72
2023-04-11T12:49:36.266Z,11.77
2023-04-11T12:50:36.266Z,11.84
2023-04-11T12:51:36.258Z,11.81
2023-04-11T12:52:36.273Z,11.80
2023-04-11T12:53:36.252Z,11.81
2023-04-11T12:54:36.254Z,11.86
2023-04-11T12:55:36.298Z,11.86
2023-04-11T12:56:36.244Z,11.91
2023-04-11T12:57:36.277Z,12.00
2023-04-11T12:58:36.239Z,11.95
2023-04-11T12:59:36.229Z,12.00
2023-04-11T13:00:36.245Z,12.04
2023-04-11T13:01:36.265Z,12.13
2023-04-11T13:02:42.806Z,12.10
2023-04-11T13:03:36.425Z,12.13
2023-04-11T13:04:36.303Z,12.06
2023-04-11T13:05:36.210Z,11.95
2023-04-11T13:06:36.208Z,11.91
2023-04-11T13:07:36.205Z,11.87
2023-04-11T13:08:36.203Z,11.88